createdAt,value
2018-06-14T00:00:54.290Z,4.10
2018-06-14T00:03:23.012Z,3.90
2018-06-14T00:05:55.449Z,3.67
2018-06-14T00:08:35.334Z,4.37
2018-06-14T00:11:03.697Z,4.10
2018-06-14T00:13:38.446Z,4.30
2018-06-14T00:16:06.935Z,4.67
2018-06-14T00:18:35.415Z,4.70
2018-06-14T00:21:03.877Z,4.73
2018-06-14T00:23:32.186Z,4.60
2018-06-14T00:26:02.602Z,5.07
2018-06-14T00:28:37.525Z,5.17
2018-06-14T00:31:06.175Z,4.90
2018-06-14T00:33:36.769Z,5.03
2018-06-14T00:36:15.437Z,5.57
2018-06-14T00:38:50.187Z,4.93
2018-06-14T00:41:18.458Z,4.60
2018-06-14T00:43:51.887Z,4.87
2018-06-14T00:46:24.393Z,4.50
2018-06-14T00:48:56.871Z,4.63
2018-06-14T00:51:29.246Z,4.70
2018-06-14T00:54:03.821Z,4.57
2018-06-14T00:56:44.769Z,4.67
2018-06-14T00:59:17.359Z,5.40
2018-06-14T01:01:59.291Z,4.70
2018-06-14T01:04:27.752Z,4.30
2018-06-14T01:06:55.996Z,4.07
2018-06-14T01:09:27.482Z,4.60
2018-06-14T01:11:55.713Z,4.33
2018-06-14T01:14:26.977Z,4.20
2018-06-14T01:16:58.427Z,4.20
2018-06-14T01:19:31.693Z,4.03
2018-06-14T01:22:00.109Z,4.13
2018-06-14T01:24:28.370Z,4.80
2018-06-14T01:26:56.982Z,4.40
2018-06-14T01:29:25.847Z,4.57
2018-06-14T01:31:57.094Z,4.20
2018-06-14T01:34:25.462Z,3.93
2018-06-14T01:36:53.764Z,4.90
2018-06-14T01:39:26.255Z,4.63
2018-06-14T01:41:57.254Z,4.20
2018-06-14T01:44:28.819Z,4.53
2018-06-14T01:47:01.181Z,4.20
2018-06-14T01:49:32.882Z,4.53
2018-06-14T01:52:15.720Z,4.43
2018-06-14T01:54:44.573Z,5.13
2018-06-14T01:57:26.672Z,4.90
2018-06-14T01:59:55.360Z,5.13
2018-06-14T02:02:33.726Z,5.40
2018-06-14T02:05:15.164Z,5.73
2018-06-14T02:07:47.641Z,5.33
2018-06-14T02:10:18.856Z,4.97
2018-06-14T02:12:47.354Z,5.17
2018-06-14T02:15:15.805Z,5.03
2018-06-14T02:17:44.119Z,5.27
2018-06-14T02:20:12.352Z,5.67
2018-06-14T02:22:43.586Z,6.00
2018-06-14T02:25:12.066Z,5.80
2018-06-14T02:27:40.320Z,5.50
2018-06-14T02:30:08.780Z,5.90
2018-06-14T02:32:37.014Z,5.90
2018-06-14T02:35:10.252Z,6.50
2018-06-14T02:37:43.405Z,5.80
2018-06-14T02:40:22.165Z,6.93
2018-06-14T02:42:59.034Z,5.83
2018-06-14T02:45:27.378Z,6.37
2018-06-14T02:47:55.644Z,6.20
2018-06-14T02:50:30.140Z,5.57
2018-06-14T02:53:01.506Z,5.50
2018-06-14T02:55:36.030Z,5.63
2018-06-14T02:58:20.489Z,6.63
2018-06-14T03:00:49.321Z,6.10
2018-06-14T03:03:17.858Z,6.00
2018-06-14T03:05:48.174Z,5.77
2018-06-14T03:08:16.371Z,6.40
2018-06-14T03:10:54.233Z,6.40
2018-06-14T03:13:23.091Z,7.13
2018-06-14T03:15:58.449Z,6.80
2018-06-14T03:18:32.925Z,6.67
2018-06-14T03:21:04.053Z,6.67
2018-06-14T03:23:43.120Z,7.27
2018-06-14T03:26:11.443Z,7.47
2018-06-14T03:28:51.298Z,6.67
2018-06-14T03:31:19.599Z,6.97
2018-06-14T03:33:47.843Z,7.83
2018-06-14T03:36:21.194Z,7.30
2018-06-14T03:38:56.743Z,7.07
2018-06-14T03:41:38.412Z,6.77
2018-06-14T03:44:06.665Z,7.73
2018-06-14T03:46:44.075Z,6.70
2018-06-14T03:49:14.990Z,7.40
2018-06-14T03:51:45.238Z,7.13
2018-06-14T03:54:13.493Z,7.10
2018-06-14T03:56:49.265Z,6.93
2018-06-14T03:59:17.494Z,6.57
2018-06-14T04:01:50.711Z,5.67
2018-06-14T04:04:21.786Z,7.97
2018-06-14T04:06:50.133Z,6.40
2018-06-14T04:09:18.439Z,6.87
2018-06-14T04:11:49.331Z,6.90
2018-06-14T04:14:17.654Z,6.73
2018-06-14T04:16:45.896Z,6.37
2018-06-14T04:19:16.866Z,6.17
2018-06-14T04:21:47.089Z,6.53
2018-06-14T04:24:15.362Z,6.13
2018-06-14T04:26:48.730Z,6.23
2018-06-14T04:29:22.141Z,6.40
2018-06-14T04:31:56.754Z,6.17
2018-06-14T04:34:25.070Z,6.40
2018-06-14T04:36:56.198Z,5.83
2018-06-14T04:39:32.118Z,5.27
2018-06-14T04:42:04.305Z,5.50
2018-06-14T04:44:37.898Z,4.80
2018-06-14T04:47:12.169Z,5.00
2018-06-14T04:49:43.286Z,5.30
2018-06-14T04:52:11.747Z,4.70
2018-06-14T04:54:40.109Z,4.50
2018-06-14T04:57:12.487Z,4.47
2018-06-14T04:59:40.871Z,4.50
2018-06-14T05:02:09.160Z,4.90
2018-06-14T05:04:41.470Z,3.97
2018-06-14T05:07:15.656Z,4.70
2018-06-14T05:09:44.114Z,4.77
2018-06-14T05:12:12.498Z,4.07
2018-06-14T05:14:40.768Z,4.60
2018-06-14T05:17:20.641Z,4.20
2018-06-14T05:19:51.134Z,4.57
2018-06-14T05:22:22.484Z,4.80
2018-06-14T05:24:50.638Z,5.10
2018-06-14T05:27:23.148Z,4.30
2018-06-14T05:29:55.578Z,4.37
2018-06-14T05:32:26.650Z,4.23
2018-06-14T05:34:58.111Z,4.40
2018-06-14T05:37:29.454Z,4.00
2018-06-14T05:40:00.720Z,4.37
2018-06-14T05:42:29.040Z,3.80
2018-06-14T05:44:57.274Z,3.30
2018-06-14T05:47:32.785Z,4.30
2018-06-14T05:50:07.546Z,3.73
2018-06-14T05:52:35.803Z,3.90
2018-06-14T05:55:12.384Z,4.00
2018-06-14T05:57:40.710Z,3.40
2018-06-14T06:00:16.089Z,3.80
2018-06-14T06:02:48.745Z,3.07
2018-06-14T06:05:18.530Z,3.63
2018-06-14T06:07:46.827Z,3.67
2018-06-14T06:10:15.017Z,3.50
2018-06-14T06:12:49.774Z,4.00
2018-06-14T06:15:18.016Z,3.33
2018-06-14T06:17:54.875Z,3.10
2018-06-14T06:20:23.475Z,3.23
2018-06-14T06:22:53.961Z,3.20
2018-06-14T06:25:24.228Z,3.20
2018-06-14T06:27:52.414Z,3.20
2018-06-14T06:30:23.422Z,3.33
2018-06-14T06:32:53.615Z,2.90
2018-06-14T06:35:21.845Z,3.30
2018-06-14T06:37:57.625Z,3.57
2018-06-14T06:40:25.828Z,3.10
2018-06-14T06:42:56.829Z,2.97
2018-06-14T06:45:36.529Z,3.83
2018-06-14T06:48:09.179Z,3.60
2018-06-14T06:50:41.833Z,3.53
2018-06-14T06:53:10.133Z,3.33
2018-06-14T06:55:48.026Z,3.33
2018-06-14T06:58:18.292Z,4.23
2018-06-14T07:00:46.471Z,3.97
2018-06-14T07:03:21.070Z,4.20
2018-06-14T07:05:49.329Z,3.97
2018-06-14T07:08:25.992Z,4.00
2018-06-14T07:10:54.267Z,4.50
2018-06-14T07:13:28.782Z,3.90
2018-06-14T07:16:04.011Z,4.23
2018-06-14T07:18:39.547Z,4.90
2018-06-14T07:21:17.243Z,4.33
2018-06-14T07:23:45.544Z,4.87
2018-06-14T07:26:23.701Z,4.93
2018-06-14T07:28:59.940Z,5.10
2018-06-14T07:31:28.163Z,5.67
2018-06-14T07:34:01.372Z,4.87
2018-06-14T07:36:41.370Z,4.90
2018-06-14T07:39:14.070Z,5.50
2018-06-14T07:41:48.577Z,5.07
2018-06-14T07:44:23.372Z,5.20
2018-06-14T07:46:51.601Z,5.60
2018-06-14T07:49:24.206Z,4.73
2018-06-14T07:51:52.566Z,5.10
2018-06-14T07:54:25.103Z,5.97
2018-06-14T07:56:53.395Z,5.50
2018-06-14T07:59:28.047Z,6.13
2018-06-14T08:01:56.338Z,5.43
2018-06-14T08:04:38.980Z,5.27
2018-06-14T08:07:07.226Z,6.03
2018-06-14T08:12:15.631Z,7.43
2018-06-14T08:14:44.001Z,6.17
2018-06-14T08:17:12.630Z,7.23
2018-06-14T08:19:42.832Z,6.47
2018-06-14T08:22:15.126Z,5.80
2018-06-14T08:24:46.018Z,6.33
2018-06-14T08:27:16.277Z,5.80
2018-06-14T08:29:44.309Z,6.27
2018-06-14T08:32:16.689Z,6.40
2018-06-14T08:34:50.998Z,6.63
2018-06-14T08:37:32.553Z,6.83
2018-06-14T08:40:02.901Z,6.10
2018-06-14T08:42:31.169Z,6.17
2018-06-14T08:44:59.606Z,6.33
2018-06-14T08:47:27.955Z,6.07
2018-06-14T08:49:56.338Z,6.83
2018-06-14T08:52:31.027Z,6.90
2018-06-14T08:54:59.235Z,7.07
2018-06-14T08:57:32.386Z,5.93
2018-06-14T09:00:10.838Z,6.60
2018-06-14T09:02:42.007Z,6.30
2018-06-14T09:05:10.471Z,6.03
2018-06-14T09:07:38.962Z,5.43
2018-06-14T09:10:07.286Z,5.53
2018-06-14T09:12:35.509Z,5.53
2018-06-14T09:15:08.881Z,5.63
2018-06-14T09:17:40.047Z,5.37
2018-06-14T09:20:10.534Z,5.00
2018-06-14T09:22:40.783Z,5.00
2018-06-14T09:25:09.122Z,5.90
2018-06-14T09:27:37.352Z,5.50
2018-06-14T09:30:17.420Z,5.47
2018-06-14T09:32:48.039Z,5.13
2018-06-14T09:35:19.380Z,5.30
2018-06-14T09:37:55.422Z,5.30
2018-06-14T09:40:23.630Z,5.70
2018-06-14T09:42:54.829Z,5.73
2018-06-14T09:45:26.113Z,5.93
2018-06-14T09:47:54.848Z,5.80
2018-06-14T09:50:26.407Z,5.83
2018-06-14T09:52:54.393Z,5.37
2018-06-14T09:55:22.650Z,6.33
2018-06-14T09:57:53.825Z,5.43
2018-06-14T10:00:25.347Z,5.83
2018-06-14T10:05:38.486Z,6.73
2018-06-14T10:08:09.379Z,5.30
2018-06-14T10:10:39.579Z,5.47
2018-06-14T10:13:07.968Z,4.67
2018-06-14T10:15:38.475Z,5.60
2018-06-14T10:18:06.774Z,5.07
2018-06-14T10:20:43.519Z,5.00
2018-06-14T10:23:11.695Z,5.17
2018-06-14T10:25:46.331Z,5.40
2018-06-14T10:28:14.703Z,4.10
2018-06-14T10:30:48.388Z,4.47
2018-06-14T10:33:16.706Z,4.40
2018-06-14T10:35:49.832Z,4.67
2018-06-14T10:38:21.082Z,5.07
2018-06-14T10:40:49.741Z,4.17
2018-06-14T10:43:21.549Z,5.03
2018-06-14T10:45:56.435Z,4.17
2018-06-14T10:48:24.855Z,4.53
2018-06-14T10:50:53.037Z,4.10
2018-06-14T10:53:21.869Z,4.50
2018-06-14T10:55:50.144Z,4.40
2018-06-14T10:58:18.363Z,4.57
2018-06-14T11:00:53.092Z,4.20
2018-06-14T11:03:21.366Z,4.60
2018-06-14T11:05:54.618Z,4.07
2018-06-14T11:08:28.785Z,3.90
2018-06-14T11:10:56.793Z,4.73
2018-06-14T11:13:31.154Z,4.20
2018-06-14T11:16:02.123Z,4.30
2018-06-14T11:18:30.532Z,4.27
2018-06-14T11:20:58.879Z,4.00
2018-06-14T11:23:31.521Z,3.83
2018-06-14T11:25:59.736Z,4.70
2018-06-14T11:28:30.803Z,4.57
2018-06-14T11:30:59.021Z,4.37
2018-06-14T11:33:27.447Z,4.20
2018-06-14T11:35:55.817Z,3.70
2018-06-14T11:38:26.842Z,3.70
2018-06-14T11:40:56.962Z,3.50
2018-06-14T11:43:24.993Z,3.07
2018-06-14T11:45:55.873Z,3.40
2018-06-14T11:48:23.982Z,4.27
2018-06-14T11:51:01.826Z,4.57
2018-06-14T11:53:30.428Z,4.23
2018-06-14T11:55:58.824Z,3.67
2018-06-14T11:58:27.204Z,4.03
2018-06-14T12:00:55.563Z,4.20
2018-06-14T12:03:35.485Z,3.83
2018-06-14T12:06:05.928Z,3.80
2018-06-14T12:08:34.329Z,4.17
2018-06-14T12:11:02.799Z,4.30
2018-06-14T12:13:31.193Z,3.67
2018-06-14T12:15:59.441Z,4.17
2018-06-14T12:18:30.767Z,3.80
2018-06-14T12:21:05.121Z,4.03
2018-06-14T12:23:36.176Z,4.20
2018-06-14T12:26:04.634Z,3.67
2018-06-14T12:28:32.938Z,3.90
2018-06-14T12:31:04.202Z,3.47
2018-06-14T12:33:38.771Z,3.10
2018-06-14T12:36:09.808Z,3.50
2018-06-14T12:38:40.149Z,3.77
2018-06-14T12:41:13.388Z,3.90
2018-06-14T12:43:41.609Z,3.20
2018-06-14T12:46:12.658Z,3.20
2018-06-14T12:48:53.554Z,3.13
2018-06-14T12:51:26.950Z,3.20
2018-06-14T12:54:01.753Z,3.37
2018-06-14T12:56:29.936Z,3.10
2018-06-14T12:59:02.406Z,3.10
2018-06-14T13:01:33.432Z,2.83
2018-06-14T13:04:04.295Z,3.27
2018-06-14T13:06:41.006Z,3.30
2018-06-14T13:09:11.525Z,2.90
2018-06-14T13:11:39.711Z,3.37
2018-06-14T13:14:22.442Z,3.37
2018-06-14T13:16:50.745Z,2.87
2018-06-14T13:19:19.048Z,3.30
2018-06-14T13:21:52.125Z,3.43
2018-06-14T13:24:23.652Z,3.40
2018-06-14T13:27:09.933Z,3.60
2018-06-14T13:29:49.471Z,2.80
2018-06-14T13:32:27.584Z,3.07
2018-06-14T13:34:55.972Z,2.97
2018-06-14T13:37:24.265Z,2.93
2018-06-14T13:39:52.639Z,3.43
2018-06-14T13:42:27.300Z,3.83
2018-06-14T13:44:55.642Z,3.57
2018-06-14T13:47:26.903Z,3.40
2018-06-14T13:50:08.973Z,3.87
2018-06-14T13:52:39.243Z,3.70
2018-06-14T13:55:07.590Z,3.87
2018-06-14T13:57:35.861Z,3.90
2018-06-14T14:00:10.447Z,3.40
2018-06-14T14:02:38.648Z,5.00
2018-06-14T14:05:09.628Z,4.10
2018-06-14T14:07:38.695Z,4.17
2018-06-14T14:10:09.842Z,4.20
2018-06-14T14:12:40.008Z,5.10
2018-06-14T14:15:08.407Z,5.07
2018-06-14T14:17:36.564Z,4.63
2018-06-14T14:20:07.572Z,4.50
2018-06-14T14:22:35.921Z,4.47
2018-06-14T14:25:04.207Z,4.47
2018-06-14T14:27:37.298Z,4.57
2018-06-14T14:30:10.796Z,4.70
2018-06-14T14:32:39.278Z,4.97
2018-06-14T14:35:10.766Z,5.10
2018-06-14T14:37:42.967Z,4.57
2018-06-14T14:40:11.376Z,4.53
2018-06-14T14:42:39.718Z,4.40
2018-06-14T14:45:07.887Z,4.07
2018-06-14T14:47:38.894Z,3.60
2018-06-14T14:50:07.342Z,3.63
2018-06-14T14:52:35.619Z,3.67
2018-06-14T14:55:04.286Z,3.70
2018-06-14T14:57:32.475Z,4.50
2018-06-14T15:00:07.859Z,3.60
2018-06-14T15:02:43.137Z,4.17
2018-06-14T15:05:11.554Z,4.50
2018-06-14T15:07:49.865Z,4.67
2018-06-14T15:10:29.927Z,4.53
2018-06-14T15:12:58.165Z,4.53
2018-06-14T15:15:28.526Z,4.73
2018-06-14T15:18:00.799Z,4.00
2018-06-14T15:20:32.099Z,4.53
2018-06-14T15:23:00.542Z,5.43
2018-06-14T15:25:28.969Z,5.10
2018-06-14T15:27:57.240Z,6.03
2018-06-14T15:30:25.498Z,6.70
2018-06-14T15:32:55.952Z,5.90
2018-06-14T15:35:30.446Z,5.30
2018-06-14T15:37:59.358Z,4.60
2018-06-14T15:40:27.560Z,5.60
2018-06-14T15:43:07.535Z,6.83
2018-06-14T15:45:39.135Z,6.10
2018-06-14T15:48:10.163Z,7.40
2018-06-14T15:50:38.482Z,6.40
2018-06-14T15:53:06.939Z,6.30
2018-06-14T15:56:10.366Z,6.27
2018-06-14T15:58:38.571Z,6.53
2018-06-14T16:01:20.264Z,7.47
2018-06-14T16:03:48.487Z,6.50
2018-06-14T16:06:19.241Z,7.10
2018-06-14T16:08:47.591Z,6.57
2018-06-14T16:11:15.871Z,6.97
2018-06-14T16:13:49.245Z,6.70
2018-06-14T16:16:17.412Z,6.63
2018-06-14T16:18:47.615Z,5.87
2018-06-14T16:21:15.947Z,6.63
2018-06-14T16:23:44.319Z,6.20
2018-06-14T16:26:19.072Z,6.23
2018-06-14T16:28:47.522Z,7.13
2018-06-14T16:31:15.849Z,6.87
2018-06-14T16:33:46.213Z,6.87
2018-06-14T16:36:19.668Z,7.40
2018-06-14T16:41:30.523Z,8.23
2018-06-14T16:44:03.644Z,7.63
2018-06-14T16:46:34.207Z,8.50
2018-06-14T16:49:16.309Z,9.13
2018-06-14T16:51:44.738Z,9.60
2018-06-14T16:54:26.945Z,9.50
2018-06-14T16:56:55.295Z,9.70
2018-06-14T16:59:27.723Z,10.63
2018-06-14T17:01:58.778Z,10.20
2018-06-14T17:04:32.155Z,10.63
2018-06-14T17:07:12.589Z,10.90
2018-06-14T17:09:43.163Z,11.90
2018-06-14T17:12:25.302Z,12.17
2018-06-14T17:14:55.959Z,12.93
2018-06-14T17:17:27.363Z,12.63
2018-06-14T17:19:58.581Z,13.70
2018-06-14T17:22:26.825Z,12.80
2018-06-14T17:25:08.277Z,13.20
2018-06-14T17:27:36.577Z,12.87
2018-06-14T17:30:10.863Z,11.40
2018-06-14T17:32:41.843Z,11.90
2018-06-14T17:35:10.091Z,12.67
2018-06-14T17:37:42.659Z,12.33
2018-06-14T17:40:10.935Z,12.57
2018-06-14T17:42:45.563Z,12.27
2018-06-14T17:45:13.861Z,13.40
2018-06-14T17:47:50.867Z,12.77
2018-06-14T17:50:21.375Z,12.93
2018-06-14T17:52:59.454Z,13.07
2018-06-14T17:55:27.743Z,13.20
2018-06-14T17:57:58.765Z,13.00
2018-06-14T18:00:29.382Z,12.93
2018-06-14T18:03:01.750Z,12.70
2018-06-14T18:05:43.205Z,12.23
2018-06-14T18:08:14.611Z,13.37
2018-06-14T18:10:46.194Z,12.93
2018-06-14T18:13:18.635Z,11.93
2018-06-14T18:15:51.752Z,12.47
2018-06-14T18:18:20.094Z,12.03
2018-06-14T18:20:48.344Z,13.07
2018-06-14T18:23:19.531Z,12.60
2018-06-14T18:25:50.957Z,12.93
2018-06-14T18:28:31.773Z,13.30
2018-06-14T18:31:02.770Z,13.93
2018-06-14T18:33:31.111Z,14.10
2018-06-14T18:35:59.539Z,12.40
2018-06-14T18:38:28.378Z,12.97
2018-06-14T18:41:00.902Z,13.13
2018-06-14T18:43:35.671Z,13.23
2018-06-14T18:46:03.892Z,13.03
2018-06-14T18:48:37.168Z,12.00
2018-06-14T18:51:08.751Z,13.33
2018-06-14T18:53:43.326Z,13.20
2018-06-14T18:56:21.080Z,12.70
2018-06-14T18:58:49.465Z,11.83
2018-06-14T19:01:17.856Z,11.60
2018-06-14T19:03:51.428Z,11.43
2018-06-14T19:06:19.897Z,12.00
2018-06-14T19:08:48.109Z,12.57
2018-06-14T19:11:22.914Z,11.87
2018-06-14T19:13:51.203Z,12.83
2018-06-14T19:16:25.918Z,10.60
2018-06-14T19:18:54.412Z,11.80
2018-06-14T19:21:22.754Z,10.63
2018-06-14T19:23:53.796Z,12.07
2018-06-14T19:26:27.141Z,11.60
2018-06-14T19:28:55.475Z,10.27
2018-06-14T19:31:23.653Z,10.40
2018-06-14T19:33:59.350Z,12.07
2018-06-14T19:36:29.756Z,12.03
2018-06-14T19:38:58.081Z,10.83
2018-06-14T19:41:29.157Z,11.20
2018-06-14T19:44:02.057Z,10.90
2018-06-14T19:46:30.300Z,11.70
2018-06-14T19:49:02.899Z,11.03
2018-06-14T19:51:33.741Z,12.37
2018-06-14T19:54:02.124Z,12.00
2018-06-14T19:56:30.487Z,10.70
2018-06-14T19:58:58.825Z,11.33
2018-06-14T20:01:29.998Z,11.83
2018-06-14T20:03:58.056Z,11.80
2018-06-14T20:06:26.387Z,11.87
2018-06-14T20:09:06.364Z,10.10
2018-06-14T20:11:36.732Z,10.87
2018-06-14T20:14:07.306Z,12.33
2018-06-14T20:19:20.935Z,11.63
2018-06-14T20:21:49.363Z,12.50
2018-06-14T20:24:17.551Z,12.70
2018-06-14T20:26:47.592Z,12.60
2018-06-14T20:29:24.947Z,13.03
2018-06-14T20:31:55.201Z,12.97
2018-06-14T20:34:23.462Z,14.10
2018-06-14T20:37:01.203Z,12.57
2018-06-14T20:39:29.420Z,11.60
2018-06-14T20:42:02.834Z,12.03
2018-06-14T20:44:39.616Z,12.30
2018-06-14T20:47:07.812Z,11.20
2018-06-14T20:49:40.404Z,11.90
2018-06-14T20:52:08.614Z,12.17
2018-06-14T20:54:43.398Z,11.77
2018-06-14T20:57:11.642Z,12.60
2018-06-14T20:59:42.692Z,11.53
2018-06-14T21:02:15.324Z,12.10
2018-06-14T21:04:46.506Z,10.97
2018-06-14T21:07:16.716Z,12.53
2018-06-14T21:09:44.907Z,12.17
2018-06-14T21:12:18.156Z,11.40
2018-06-14T21:14:49.122Z,12.37
2018-06-14T21:17:17.406Z,12.73
2018-06-14T21:19:50.631Z,12.17
2018-06-14T21:22:25.259Z,12.30
2018-06-14T21:25:02.817Z,12.87
2018-06-14T21:27:36.157Z,12.57
2018-06-14T21:30:13.573Z,12.73
2018-06-14T21:32:48.226Z,12.80
2018-06-14T21:35:16.834Z,13.10
2018-06-14T21:37:45.074Z,15.60
2018-06-14T21:40:16.142Z,15.00
2018-06-14T21:42:47.569Z,14.77
2018-06-14T21:45:20.881Z,12.83
2018-06-14T21:47:52.066Z,13.57
2018-06-14T21:50:20.327Z,13.60
2018-06-14T21:52:54.379Z,15.40
2018-06-14T21:55:25.579Z,15.80
2018-06-14T21:57:53.924Z,16.57
2018-06-14T22:00:23.600Z,14.07
2018-06-14T22:02:57.321Z,15.70
2018-06-14T22:05:27.442Z,16.47
2018-06-14T22:07:55.746Z,17.03
2018-06-14T22:10:29.011Z,17.33
2018-06-14T22:13:03.553Z,16.73
2018-06-14T22:15:36.657Z,17.47
2018-06-14T22:18:16.806Z,17.47
2018-06-14T22:20:45.176Z,17.50
2018-06-14T22:23:13.461Z,15.80
2018-06-14T22:25:50.392Z,17.40
2018-06-14T22:28:21.586Z,17.40
2018-06-14T22:30:49.833Z,16.07
2018-06-14T22:33:31.775Z,17.20
2018-06-14T22:35:59.994Z,17.53
2018-06-14T22:38:28.385Z,17.93
2018-06-14T22:40:56.585Z,17.47
2018-06-14T22:43:27.798Z,20.00
2018-06-14T22:45:59.186Z,22.30
2018-06-14T22:48:29.462Z,23.10
2018-06-14T22:51:10.940Z,22.10
2018-06-14T22:53:39.238Z,21.30
2018-06-14T22:56:07.536Z,22.47
2018-06-14T22:58:38.553Z,22.90
2018-06-14T23:01:45.050Z,24.07
2018-06-14T23:04:20.362Z,24.30
2018-06-14T23:06:54.930Z,23.27
2018-06-14T23:10:39.034Z,24.60
2018-06-14T23:13:11.197Z,22.93
2018-06-14T23:15:43.460Z,23.40
2018-06-14T23:18:16.193Z,24.77
2018-06-14T23:20:47.506Z,25.17
2018-06-14T23:23:22.084Z,24.07
2018-06-14T23:25:53.181Z,26.40
2018-06-14T23:28:24.683Z,25.33
2018-06-14T23:30:56.923Z,26.33
2018-06-14T23:33:27.227Z,27.47
2018-06-14T23:36:04.755Z,27.27
2018-06-14T23:38:33.167Z,24.80
2018-06-14T23:41:01.383Z,27.87
2018-06-14T23:43:34.550Z,29.10
2018-06-14T23:46:05.637Z,26.47
2018-06-14T23:48:33.979Z,28.67
2018-06-14T23:51:02.234Z,25.23
2018-06-14T23:53:36.983Z,28.27
2018-06-14T23:56:05.248Z,27.73
2018-06-14T23:58:43.914Z,27.17
